Time;durP1;ratioP1;P1;durP2;ratioP2;P2;SDS_P1;SDS_P2;PMS_P1;PMS_P2;Temp;Humidity;BMP_temperature;BMP_pressure;BME280_temperature;BME280_humidity;BME280_pressure;Samples;Min_cycle;Max_cycle;Signal;HPM_P1;HPM_P2
2022/03/25 00:01:12;;;;;;;10.27;6.47;;;10.90;96.70;;;;;;4969958;28;20696;-81
2022/03/25 00:03:41;;;;;;;12.85;6.60;;;10.90;96.70;;;;;;4987774;28;20084;-81
2022/03/25 00:06:09;;;;;;;10.65;7.65;;;10.90;96.70;;;;;;4988205;28;20043;-83
2022/03/25 00:08:38;;;;;;;10.63;7.43;;;10.80;96.70;;;;;;5006065;28;20095;-82
2022/03/25 00:11:06;;;;;;;13.38;7.63;;;10.70;96.70;;;;;;4992393;28;20124;-81
2022/03/25 00:13:36;;;;;;;9.50;6.82;;;10.60;96.70;;;;;;4973928;28;20651;-82
2022/03/25 00:16:05;;;;;;;8.32;6.32;;;10.60;96.70;;;;;;4989371;28;20460;-82
2022/03/25 00:18:33;;;;;;;7.82;5.72;;;10.60;96.70;;;;;;4970601;28;20589;-82
2022/03/25 00:21:01;;;;;;;8.50;5.55;;;10.60;96.70;;;;;;4971648;28;20420;-82
2022/03/25 00:23:30;;;;;;;9.20;6.05;;;10.50;96.70;;;;;;4970746;28;20104;-81
2022/03/25 00:25:58;;;;;;;7.18;5.32;;;10.40;96.70;;;;;;4981028;28;20046;-81
2022/03/25 00:28:26;;;;;;;7.57;5.80;;;10.30;96.70;;;;;;4988186;28;20101;-82
2022/03/25 00:30:56;;;;;;;7.95;5.60;;;10.20;96.70;;;;;;4976177;28;20046;-82
2022/03/25 00:33:24;;;;;;;6.90;5.45;;;10.10;96.70;;;;;;4966540;28;20050;-82
2022/03/25 00:35:53;;;;;;;7.50;5.57;;;10.10;96.70;;;;;;4986271;28;20053;-82
2022/03/25 00:38:22;;;;;;;6.07;4.95;;;10.00;96.70;;;;;;5002454;28;20062;-81
2022/03/25 00:40:50;;;;;;;7.70;5.45;;;10.00;96.70;;;;;;5015572;28;20046;-82
2022/03/25 00:43:20;;;;;;;8.48;5.50;;;10.00;96.70;;;;;;5000400;28;20050;-82
2022/03/25 00:45:48;;;;;;;13.18;7.57;;;9.80;96.70;;;;;;4968320;28;20053;-81
2022/03/25 00:48:19;;;;;;;17.33;10.90;;;9.90;96.70;;;;;;4986994;28;20499;-82
2022/03/25 00:50:48;;;;;;;12.40;8.25;;;9.80;96.70;;;;;;4983247;28;20051;-81
2022/03/25 00:53:16;;;;;;;12.38;7.28;;;9.70;96.70;;;;;;4983269;28;20046;-80
2022/03/25 00:55:44;;;;;;;8.45;6.05;;;9.70;96.70;;;;;;4983050;28;20038;-82
2022/03/25 00:58:14;;;;;;;8.95;6.50;;;9.80;96.70;;;;;;4967488;28;20141;-82
2022/03/25 01:00:43;;;;;;;8.93;6.18;;;9.70;96.70;;;;;;4986010;28;20105;-76
2022/03/25 01:03:11;;;;;;;10.50;5.90;;;9.70;96.70;;;;;;4983635;28;20093;-76
2022/03/25 01:05:44;;;;;;;7.97;5.90;;;9.60;96.70;;;;;;4990202;28;20056;-75
2022/03/25 01:08:14;;;;;;;8.88;6.00;;;9.50;96.70;;;;;;4982589;28;20121;-76
2022/03/25 01:10:45;;;;;;;12.10;6.50;;;9.50;96.70;;;;;;5002959;28;20289;-76
2022/03/25 01:13:14;;;;;;;9.30;6.38;;;9.60;96.70;;;;;;4984842;28;20820;-76
2022/03/25 01:15:43;;;;;;;9.27;6.13;;;9.60;96.70;;;;;;4986508;28;20046;-76
2022/03/25 01:18:11;;;;;;;7.80;5.80;;;9.30;96.70;;;;;;4986275;28;20081;-76
2022/03/25 01:20:41;;;;;;;11.65;6.25;;;9.10;96.70;;;;;;4974805;28;20043;-76
2022/03/25 01:23:09;;;;;;;7.35;5.70;;;9.10;96.70;;;;;;5001290;28;20043;-76
2022/03/25 01:25:38;;;;;;;11.50;7.07;;;9.10;96.70;;;;;;5005037;28;20448;-76
2022/03/25 01:28:06;;;;;;;9.27;6.38;;;9.20;96.70;;;;;;4970191;28;20051;-76
2022/03/25 01:30:35;;;;;;;10.07;6.30;;;9.00;96.70;;;;;;4988425;28;20042;-76
2022/03/25 01:33:03;;;;;;;11.15;6.32;;;9.00;96.70;;;;;;5002489;28;20129;-82
2022/03/25 01:35:32;;;;;;;10.25;6.40;;;9.00;96.70;;;;;;4989515;28;20503;-82
2022/03/25 01:38:02;;;;;;;11.13;7.15;;;9.10;96.70;;;;;;5005374;28;20094;-80
2022/03/25 01:40:31;;;;;;;10.65;7.50;;;9.00;96.70;;;;;;5005251;28;20141;-80
2022/03/25 01:43:00;;;;;;;10.88;7.80;;;8.90;96.70;;;;;;4976071;28;20061;-81
2022/03/25 01:45:32;;;;;;;10.15;6.28;;;8.90;96.70;;;;;;4989387;28;20057;-81
2022/03/25 01:48:01;;;;;;;7.75;6.13;;;8.90;96.70;;;;;;5005542;28;20046;-81
2022/03/25 01:50:31;;;;;;;7.40;5.72;;;9.00;96.70;;;;;;4972256;28;20043;-82
2022/03/25 01:53:01;;;;;;;7.97;5.65;;;9.00;96.70;;;;;;5007741;28;20061;-80
2022/03/25 01:55:37;;;;;;;9.32;5.93;;;9.00;96.70;;;;;;4975142;28;20076;-81
2022/03/25 01:58:06;;;;;;;7.82;5.63;;;9.00;96.70;;;;;;4990396;28;20481;-81
2022/03/25 02:00:35;;;;;;;10.55;6.28;;;9.00;96.70;;;;;;5021648;28;20141;-80
2022/03/25 02:03:04;;;;;;;11.50;6.47;;;8.90;96.70;;;;;;5017901;28;20093;-80
2022/03/25 02:05:35;;;;;;;9.27;5.75;;;9.00;96.70;;;;;;4982741;28;20054;-81
2022/03/25 02:08:05;;;;;;;8.10;5.65;;;8.80;96.70;;;;;;4999443;28;20049;-81
2022/03/25 02:10:34;;;;;;;5.70;4.55;;;8.80;96.70;;;;;;4991568;28;20113;-81
2022/03/25 02:13:03;;;;;;;7.03;4.97;;;8.70;96.70;;;;;;5008858;28;21017;-80
2022/03/25 02:15:33;;;;;;;6.63;4.45;;;8.70;96.70;;;;;;4985238;28;20117;-82
2022/03/25 02:18:10;;;;;;;8.70;5.40;;;8.80;96.70;;;;;;4999550;28;20057;-75
2022/03/25 02:20:39;;;;;;;7.32;5.28;;;8.80;96.70;;;;;;4964780;28;20046;-76
2022/03/25 02:23:12;;;;;;;6.25;5.00;;;8.80;96.70;;;;;;4981483;28;20039;-75
2022/03/25 02:25:41;;;;;;;7.57;4.88;;;8.80;96.70;;;;;;4997641;28;20485;-75
2022/03/25 02:28:10;;;;;;;6.35;4.85;;;8.70;96.70;;;;;;4985332;28;20482;-75
2022/03/25 02:30:43;;;;;;;7.95;5.28;;;8.70;96.70;;;;;;4997903;28;20061;-75
2022/03/25 02:33:14;;;;;;;8.07;5.45;;;8.70;96.70;;;;;;4983064;28;20050;-76
2022/03/25 02:35:44;;;;;;;8.45;5.30;;;8.50;96.70;;;;;;5010561;28;20046;-75
2022/03/25 02:38:15;;;;;;;7.10;4.75;;;8.40;96.70;;;;;;4979861;28;20885;-75
2022/03/25 02:40:44;;;;;;;6.90;5.15;;;8.40;96.70;;;;;;4982864;28;20046;-76
2022/03/25 02:43:12;;;;;;;5.68;4.43;;;8.30;96.70;;;;;;4984342;28;20050;-76
2022/03/25 02:45:45;;;;;;;7.82;4.78;;;8.30;96.70;;;;;;4998103;28;20046;-76
2022/03/25 02:48:14;;;;;;;7.43;4.68;;;8.30;96.70;;;;;;4965872;28;20137;-75
2022/03/25 02:50:42;;;;;;;6.07;4.35;;;8.40;96.70;;;;;;4967619;28;20061;-76
2022/03/25 02:53:11;;;;;;;8.10;4.72;;;8.30;96.70;;;;;;4982110;28;20054;-75
2022/03/25 02:55:40;;;;;;;7.38;5.03;;;8.30;96.70;;;;;;4965766;28;20047;-76
2022/03/25 02:58:10;;;;;;;6.00;4.70;;;8.30;96.70;;;;;;4997289;28;20047;-75
2022/03/25 03:00:39;;;;;;;6.45;4.97;;;8.20;96.70;;;;;;4998115;28;20042;-75
2022/03/25 03:03:08;;;;;;;10.05;5.60;;;8.20;96.70;;;;;;4968236;28;20051;-75
2022/03/25 03:05:36;;;;;;;9.57;5.38;;;8.30;96.70;;;;;;4968455;28;20053;-81
2022/03/25 03:08:06;;;;;;;8.27;5.47;;;8.20;96.70;;;;;;4969315;28;20055;-81
2022/03/25 03:10:35;;;;;;;9.73;5.60;;;8.20;96.70;;;;;;5002116;28;20055;-81
2022/03/25 03:13:05;;;;;;;8.43;5.90;;;8.10;96.70;;;;;;4968773;28;20515;-81
2022/03/25 03:15:33;;;;;;;7.80;5.63;;;8.10;96.70;;;;;;4969401;28;20051;-81
2022/03/25 03:18:02;;;;;;;9.32;5.70;;;8.20;96.70;;;;;;4969811;28;20043;-81
2022/03/25 03:20:30;;;;;;;8.73;5.57;;;8.20;96.70;;;;;;4967507;28;20043;-81
2022/03/25 03:22:59;;;;;;;8.93;6.13;;;7.90;96.70;;;;;;4985309;28;20097;-81
2022/03/25 03:25:27;;;;;;;10.20;5.80;;;7.90;96.70;;;;;;4968081;28;20051;-81
2022/03/25 03:27:55;;;;;;;8.25;5.50;;;7.80;96.70;;;;;;4976450;28;20066;-81
2022/03/25 03:30:25;;;;;;;7.68;5.32;;;7.80;96.70;;;;;;4975190;28;20046;-81
2022/03/25 03:32:57;;;;;;;7.80;5.30;;;7.80;96.70;;;;;;5000802;28;20038;-80
2022/03/25 03:35:26;;;;;;;6.25;4.50;;;7.70;96.70;;;;;;4985423;28;20046;-81
2022/03/25 03:37:55;;;;;;;9.65;5.18;;;7.60;96.70;;;;;;4971536;28;20057;-81
2022/03/25 03:40:23;;;;;;;6.97;5.15;;;7.70;96.70;;;;;;4967977;28;20098;-81
2022/03/25 03:42:52;;;;;;;9.15;5.40;;;7.70;96.70;;;;;;4970122;28;20125;-81
2022/03/25 03:45:20;;;;;;;8.23;5.82;;;7.80;96.70;;;;;;4972895;28;20080;-80
2022/03/25 03:47:52;;;;;;;11.70;5.53;;;7.70;96.70;;;;;;4985787;28;20101;-81
2022/03/25 03:50:20;;;;;;;7.78;5.95;;;7.60;96.70;;;;;;4973080;28;20057;-81
2022/03/25 03:52:48;;;;;;;8.40;5.63;;;7.50;96.70;;;;;;4970892;28;20098;-80
2022/03/25 03:55:18;;;;;;;7.82;5.32;;;7.70;96.70;;;;;;4983677;28;20145;-81
2022/03/25 03:57:46;;;;;;;8.18;5.47;;;7.70;96.70;;;;;;4983865;28;20492;-80
2022/03/25 04:00:15;;;;;;;9.95;6.13;;;7.70;96.70;;;;;;4968230;28;20054;-80
2022/03/25 04:02:46;;;;;;;7.95;5.75;;;7.60;96.70;;;;;;4972947;28;20060;-81
2022/03/25 04:05:16;;;;;;;10.52;5.53;;;7.40;96.70;;;;;;4972403;28;20054;-79
2022/03/25 04:07:46;;;;;;;10.55;6.10;;;7.40;96.70;;;;;;4967157;28;20050;-81
2022/03/25 04:10:15;;;;;;;8.60;5.20;;;7.40;96.70;;;;;;4967204;28;20054;-81
2022/03/25 04:12:44;;;;;;;7.00;4.72;;;7.40;96.70;;;;;;4999921;28;20047;-81
2022/03/25 04:15:13;;;;;;;7.43;4.82;;;7.30;96.70;;;;;;4997952;28;20519;-79
2022/03/25 04:17:42;;;;;;;7.68;5.45;;;7.30;96.70;;;;;;4967748;28;20473;-81
2022/03/25 04:20:13;;;;;;;6.72;4.88;;;7.30;96.70;;;;;;4969173;28;20070;-81
2022/03/25 04:22:44;;;;;;;8.05;5.57;;;7.30;96.70;;;;;;4968156;28;20054;-80
2022/03/25 04:25:14;;;;;;;6.95;5.00;;;7.40;96.70;;;;;;4971665;28;20086;-82
2022/03/25 04:27:52;;;;;;;8.85;4.93;;;7.40;96.70;;;;;;4969128;28;20050;-81
2022/03/25 04:30:22;;;;;;;8.50;5.57;;;7.40;96.70;;;;;;4996788;28;20097;-81
2022/03/25 04:32:51;;;;;;;7.15;5.03;;;7.40;96.70;;;;;;4968440;28;20042;-75
2022/03/25 04:35:20;;;;;;;7.00;5.10;;;7.40;96.70;;;;;;4995184;28;20057;-75
2022/03/25 04:37:51;;;;;;;10.07;6.10;;;7.40;96.70;;;;;;4976922;28;20592;-75
2022/03/25 04:40:21;;;;;;;9.38;5.55;;;7.50;96.70;;;;;;4982628;28;20047;-75
2022/03/25 04:42:51;;;;;;;7.68;5.40;;;7.40;96.70;;;;;;4986913;28;20046;-74
2022/03/25 04:45:21;;;;;;;7.18;5.63;;;7.50;96.70;;;;;;4998564;28;20047;-75
2022/03/25 04:47:49;;;;;;;8.38;5.60;;;7.50;96.70;;;;;;4983070;28;20051;-76
2022/03/25 04:50:17;;;;;;;7.10;5.07;;;7.30;96.70;;;;;;5001404;28;20046;-75
2022/03/25 04:52:46;;;;;;;9.20;5.38;;;7.20;96.70;;;;;;4982927;28;20050;-75
2022/03/25 04:55:18;;;;;;;8.10;5.05;;;7.30;96.70;;;;;;4983398;28;20042;-75
2022/03/25 04:57:47;;;;;;;9.10;5.63;;;7.30;96.70;;;;;;4982706;28;20498;-75
2022/03/25 05:00:17;;;;;;;8.65;4.97;;;7.10;96.70;;;;;;4999098;28;20141;-75
2022/03/25 05:02:45;;;;;;;9.35;5.50;;;7.10;96.70;;;;;;4985105;28;20057;-76
2022/03/25 05:05:14;;;;;;;6.65;4.40;;;7.10;96.70;;;;;;4967688;28;20049;-75
2022/03/25 05:07:43;;;;;;;7.90;5.20;;;7.00;96.70;;;;;;5001873;28;20061;-75
2022/03/25 05:10:14;;;;;;;6.53;5.18;;;7.00;96.70;;;;;;4994835;28;20354;-76
2022/03/25 05:12:45;;;;;;;8.90;5.03;;;7.00;96.70;;;;;;4982024;28;20049;-74
2022/03/25 05:15:14;;;;;;;9.60;6.82;;;6.90;96.70;;;;;;4984393;28;20400;-75
2022/03/25 05:17:46;;;;;;;10.73;5.50;;;6.90;96.70;;;;;;4967822;28;20062;-75
2022/03/25 05:20:16;;;;;;;9.10;5.53;;;6.90;96.70;;;;;;5000041;28;20047;-75
2022/03/25 05:22:44;;;;;;;12.23;6.60;;;6.80;96.70;;;;;;4984643;28;20070;-75
2022/03/25 05:25:13;;;;;;;8.73;5.70;;;6.80;96.70;;;;;;4985255;28;20042;-76
2022/03/25 05:27:51;;;;;;;8.30;5.75;;;6.80;96.70;;;;;;4982530;28;20104;-75
2022/03/25 05:30:20;;;;;;;8.73;5.85;;;6.80;96.70;;;;;;4993813;28;20046;-75
2022/03/25 05:32:49;;;;;;;11.77;6.10;;;6.80;96.70;;;;;;5012764;28;20054;-75
2022/03/25 05:35:19;;;;;;;10.75;6.70;;;6.90;96.70;;;;;;5017776;28;20054;-75
2022/03/25 05:37:48;;;;;;;10.20;6.22;;;6.80;96.70;;;;;;4999169;28;20050;-75
2022/03/25 05:40:17;;;;;;;10.85;5.70;;;6.80;96.70;;;;;;4983201;28;20528;-76
2022/03/25 05:42:46;;;;;;;9.10;5.95;;;6.80;96.70;;;;;;5001145;28;20551;-76
2022/03/25 05:45:19;;;;;;;10.32;5.75;;;6.70;96.70;;;;;;4987125;28;20038;-75
2022/03/25 05:47:49;;;;;;;8.13;4.88;;;6.60;96.70;;;;;;4997500;28;20653;-75
2022/03/25 05:50:18;;;;;;;9.18;4.85;;;6.70;96.70;;;;;;4989269;28;20596;-74
2022/03/25 05:52:47;;;;;;;6.68;4.68;;;6.80;96.70;;;;;;4987254;28;20546;-74
2022/03/25 05:55:16;;;;;;;8.23;4.68;;;6.70;96.70;;;;;;4987390;28;20519;-75
2022/03/25 05:57:45;;;;;;;10.13;5.07;;;6.70;96.70;;;;;;4988263;28;20046;-76
2022/03/25 06:00:17;;;;;;;9.05;5.20;;;6.60;96.70;;;;;;4967128;28;20085;-75
2022/03/25 06:02:48;;;;;;;6.10;4.60;;;6.60;96.70;;;;;;4987571;28;20042;-75
2022/03/25 06:05:18;;;;;;;8.40;5.68;;;6.60;96.70;;;;;;4984947;28;20174;-75
2022/03/25 06:07:46;;;;;;;9.88;4.95;;;6.80;96.70;;;;;;4986660;28;20051;-75
2022/03/25 06:10:15;;;;;;;9.02;5.40;;;6.70;96.70;;;;;;5004472;28;20047;-76
2022/03/25 06:12:44;;;;;;;9.30;5.45;;;6.70;96.70;;;;;;4987317;28;20050;-81
2022/03/25 06:15:12;;;;;;;8.75;5.60;;;6.80;96.70;;;;;;5006378;28;20050;-81
2022/03/25 06:17:46;;;;;;;7.32;5.28;;;6.90;96.70;;;;;;4975250;28;20493;-81
2022/03/25 06:20:18;;;;;;;11.48;5.50;;;6.90;96.70;;;;;;5005385;28;20112;-79
2022/03/25 06:22:47;;;;;;;13.20;5.18;;;6.80;96.70;;;;;;4984899;28;20050;-80
2022/03/25 06:25:15;;;;;;;10.63;5.78;;;6.80;96.70;;;;;;4977805;28;20062;-80
2022/03/25 06:27:49;;;;;;;7.57;5.72;;;6.80;96.70;;;;;;4973802;28;20042;-81
2022/03/25 06:30:18;;;;;;;10.55;6.07;;;6.90;96.70;;;;;;4986667;28;20042;-80
2022/03/25 06:32:48;;;;;;;11.82;6.72;;;6.90;96.70;;;;;;4977563;28;20052;-79
2022/03/25 06:35:20;;;;;;;9.30;6.25;;;7.00;96.70;;;;;;5027901;28;20080;-81
2022/03/25 06:37:48;;;;;;;7.57;6.18;;;7.00;96.70;;;;;;5013648;28;20527;-81
2022/03/25 06:40:16;;;;;;;9.13;6.32;;;7.00;96.70;;;;;;5011647;28;20049;-81
2022/03/25 06:42:45;;;;;;;12.60;6.18;;;7.20;96.70;;;;;;5015106;28;20050;-81
2022/03/25 06:45:15;;;;;;;10.20;5.78;;;7.40;96.70;;;;;;4995466;28;20034;-81
2022/03/25 06:47:44;;;;;;;11.57;6.90;;;7.40;96.70;;;;;;4990253;28;20038;-80
2022/03/25 06:50:17;;;;;;;11.65;6.35;;;7.50;96.70;;;;;;5004793;28;20050;-81
2022/03/25 06:52:47;;;;;;;9.65;6.78;;;7.70;96.70;;;;;;5008050;28;20522;-81
2022/03/25 06:55:16;;;;;;;8.80;6.38;;;7.80;96.70;;;;;;4988918;28;20097;-81
2022/03/25 06:57:49;;;;;;;10.55;6.80;;;7.80;96.70;;;;;;4993711;28;20045;-81
2022/03/25 07:00:18;;;;;;;9.70;6.95;;;7.80;96.70;;;;;;5004381;28;20173;-81
2022/03/25 07:02:48;;;;;;;9.40;6.95;;;7.90;96.70;;;;;;4983884;28;20058;-80
2022/03/25 07:05:18;;;;;;;10.52;7.03;;;7.90;96.70;;;;;;5020889;28;20109;-82
2022/03/25 07:07:47;;;;;;;11.63;7.40;;;8.00;96.70;;;;;;4997188;28;20077;-81
2022/03/25 07:10:16;;;;;;;12.82;7.22;;;7.90;96.70;;;;;;4987589;28;20043;-81
2022/03/25 07:12:45;;;;;;;14.40;7.07;;;8.10;96.70;;;;;;5025596;28;20069;-81
2022/03/25 07:15:14;;;;;;;8.93;6.60;;;8.10;96.70;;;;;;4988684;28;20069;-81
2022/03/25 07:17:43;;;;;;;8.32;6.82;;;8.10;96.70;;;;;;4989925;28;20049;-80
2022/03/25 07:20:13;;;;;;;12.02;7.43;;;8.20;96.70;;;;;;4992768;28;20080;-81
2022/03/25 07:22:45;;;;;;;8.68;6.53;;;8.30;96.70;;;;;;4990452;28;20058;-81
2022/03/25 07:25:14;;;;;;;9.70;6.47;;;8.40;96.70;;;;;;4987650;28;20575;-82
2022/03/25 07:27:44;;;;;;;8.98;6.68;;;8.60;96.70;;;;;;4972027;28;20069;-80
2022/03/25 07:30:14;;;;;;;9.98;6.93;;;8.80;96.70;;;;;;4991939;28;20073;-80
2022/03/25 07:32:43;;;;;;;9.82;7.05;;;8.80;96.70;;;;;;5013449;28;20145;-82
2022/03/25 07:35:12;;;;;;;10.95;6.68;;;8.80;96.70;;;;;;5003163;28;20034;-82
2022/03/25 07:37:43;;;;;;;10.80;7.15;;;8.90;96.70;;;;;;5000652;28;20457;-82
2022/03/25 07:40:13;;;;;;;11.85;7.75;;;9.00;96.70;;;;;;4971085;28;20049;-81
2022/03/25 07:42:42;;;;;;;13.00;7.70;;;9.10;96.70;;;;;;5000392;28;20042;-82
2022/03/25 07:45:15;;;;;;;11.55;7.80;;;9.20;96.70;;;;;;5005931;28;20054;-82
2022/03/25 07:47:45;;;;;;;10.68;7.20;;;9.20;96.70;;;;;;4998408;28;20531;-83
2022/03/25 07:50:15;;;;;;;9.82;7.60;;;9.20;96.70;;;;;;4983775;28;20145;-82
2022/03/25 07:52:46;;;;;;;12.15;7.85;;;9.40;96.70;;;;;;4999828;28;20437;-80
2022/03/25 07:55:17;;;;;;;11.98;7.18;;;9.60;96.70;;;;;;4983410;28;20165;-82
2022/03/25 07:57:46;;;;;;;10.70;8.10;;;9.60;96.70;;;;;;4998603;28;20137;-82
2022/03/25 08:00:15;;;;;;;11.00;7.88;;;9.70;96.70;;;;;;4966891;28;20058;-82
2022/03/25 08:02:45;;;;;;;10.32;7.80;;;9.80;96.70;;;;;;5008797;28;20070;-82
2022/03/25 08:05:14;;;;;;;12.48;7.93;;;9.90;96.70;;;;;;4969696;28;20045;-84
2022/03/25 08:07:48;;;;;;;11.80;8.52;;;10.10;96.70;;;;;;4984603;28;20046;-78
2022/03/25 08:10:18;;;;;;;11.75;8.57;;;10.20;96.70;;;;;;4980608;28;20051;-78
2022/03/25 08:12:46;;;;;;;13.13;8.40;;;10.30;96.70;;;;;;4983141;28;20049;-82
2022/03/25 08:15:15;;;;;;;9.98;7.70;;;10.40;96.70;;;;;;4968398;28;20150;-81
2022/03/25 08:17:52;;;;;;;11.27;8.07;;;10.50;96.70;;;;;;4967355;28;20579;-81
2022/03/25 08:20:20;;;;;;;;;;;10.60;96.70;;;;;;4999628;28;20042;-80
2022/03/25 08:22:50;;;;;;;12.10;8.25;;;10.70;96.70;;;;;;5000041;28;19926;-80
2022/03/25 08:28:06;;;;;;;15.63;8.00;;;10.90;96.70;;;;;;4981754;28;20057;-80
2022/03/25 08:30:35;;;;;;;10.23;7.40;;;11.00;96.70;;;;;;4964583;28;20070;-80
2022/03/25 08:33:05;;;;;;;14.40;8.18;;;11.10;96.70;;;;;;4982931;28;20065;-80
2022/03/25 08:35:35;;;;;;;13.02;8.48;;;11.30;96.70;;;;;;4968486;28;20042;-81
2022/03/25 08:38:05;;;;;;;12.35;7.63;;;11.40;96.70;;;;;;4968245;28;20047;-77
2022/03/25 08:40:35;;;;;;;11.52;7.88;;;11.40;96.70;;;;;;4991207;28;20065;-77
2022/03/25 08:43:23;;;;;;;12.02;8.07;;;11.50;96.70;;;;;;4966299;28;20054;-76
2022/03/25 08:45:52;;;;;;;12.25;8.20;;;11.60;96.70;;;;;;4974641;28;20051;-76
2022/03/25 08:48:20;;;;;;;12.50;8.40;;;11.80;96.70;;;;;;4964327;28;20054;-76
2022/03/25 08:50:49;;;;;;;11.55;7.43;;;12.00;96.70;;;;;;4991861;28;20097;-77
2022/03/25 08:53:18;;;;;;;14.00;8.73;;;12.20;96.70;;;;;;4998170;28;20039;-77
2022/03/25 08:55:47;;;;;;;9.40;7.72;;;12.30;96.70;;;;;;4993077;28;20051;-76
2022/03/25 08:58:19;;;;;;;10.00;7.88;;;12.40;96.70;;;;;;4965017;28;20704;-76
2022/03/25 09:00:47;;;;;;;10.25;7.95;;;12.70;96.70;;;;;;4981990;28;20405;-77
2022/03/25 09:03:16;;;;;;;12.52;8.40;;;12.70;96.70;;;;;;4964995;28;20416;-77
2022/03/25 09:05:44;;;;;;;13.52;9.18;;;12.70;96.70;;;;;;4965230;28;20097;-76
2022/03/25 09:08:13;;;;;;;17.95;10.90;;;12.70;96.70;;;;;;4997465;28;20046;-77
2022/03/25 09:10:44;;;;;;;16.60;11.20;;;12.80;96.70;;;;;;4978137;28;20076;-76
2022/03/25 09:13:12;;;;;;;15.55;11.20;;;13.00;96.70;;;;;;4976128;28;21425;-76
2022/03/25 09:15:40;;;;;;;14.75;9.75;;;13.00;96.70;;;;;;4998678;28;20093;-77
2022/03/25 09:18:09;;;;;;;13.63;9.35;;;13.00;96.60;;;;;;4963284;28;20670;-77
2022/03/25 09:20:37;;;;;;;12.35;8.95;;;13.00;96.70;;;;;;4980996;28;20437;-76
2022/03/25 09:23:06;;;;;;;13.68;9.48;;;13.10;96.70;;;;;;4963285;28;20043;-77
2022/03/25 09:25:35;;;;;;;13.65;8.90;;;13.30;96.70;;;;;;5002199;28;20595;-77
2022/03/25 09:28:05;;;;;;;13.30;8.82;;;13.30;96.70;;;;;;4967342;28;20057;-76
2022/03/25 09:30:34;;;;;;;10.80;8.20;;;13.40;96.50;;;;;;5016612;28;20571;-76
2022/03/25 09:33:04;;;;;;;13.50;7.95;;;13.50;96.70;;;;;;4979827;28;20047;-78
2022/03/25 09:35:36;;;;;;;10.98;7.93;;;13.70;96.10;;;;;;5006350;28;20069;-77
2022/03/25 09:38:05;;;;;;;11.35;8.60;;;13.80;95.50;;;;;;4983181;28;20487;-77
2022/03/25 09:40:33;;;;;;;12.52;7.78;;;13.70;94.90;;;;;;4989598;28;20042;-77
2022/03/25 09:43:02;;;;;;;14.20;8.10;;;13.80;95.30;;;;;;5001655;28;20756;-75
2022/03/25 09:45:34;;;;;;;10.73;8.25;;;13.90;94.40;;;;;;4970060;28;20066;-77
2022/03/25 09:48:04;;;;;;;12.82;8.60;;;13.90;95.00;;;;;;4981422;28;20070;-81
2022/03/25 09:50:38;;;;;;;12.02;7.63;;;14.20;95.00;;;;;;5001061;28;20046;-81
2022/03/25 09:53:14;;;;;;;10.88;7.47;;;14.40;94.10;;;;;;5000087;28;20050;-81
2022/03/25 09:55:45;;;;;;;11.05;7.55;;;14.50;91.50;;;;;;4966341;28;20413;-77
2022/03/25 09:58:20;;;;;;;9.20;7.20;;;14.60;92.00;;;;;;4970300;28;20366;-77
2022/03/25 10:00:51;;;;;;;9.05;6.95;;;14.70;92.90;;;;;;5000667;28;20059;-76
2022/03/25 10:03:24;;;;;;;10.80;7.55;;;14.90;92.00;;;;;;4968155;28;20059;-77
2022/03/25 10:05:58;;;;;;;9.73;7.47;;;15.00;91.30;;;;;;4965038;28;20046;-77
2022/03/25 10:08:43;;;;;;;9.88;7.30;;;15.00;90.80;;;;;;4972288;28;20113;-77
2022/03/25 10:11:22;;;;;;;9.43;7.03;;;15.10;90.40;;;;;;4980925;28;20054;-77
2022/03/25 10:14:15;;;;;;;8.02;6.50;;;15.10;89.80;;;;;;4978961;28;20130;-78
2022/03/25 10:16:46;;;;;;;10.50;6.72;;;15.20;88.10;;;;;;4987319;28;20771;-76
2022/03/25 10:19:18;;;;;;;7.63;5.68;;;15.40;87.60;;;;;;4975800;28;20057;-77
2022/03/25 10:21:54;;;;;;;8.90;5.93;;;15.60;85.30;;;;;;5015643;28;20057;-78
2022/03/25 10:24:39;;;;;;;6.90;5.45;;;15.90;83.80;;;;;;4969322;28;20053;-84
2022/03/25 10:27:17;;;;;;;9.15;6.05;;;16.10;83.20;;;;;;5001721;28;20050;-80
2022/03/25 10:29:47;;;;;;;9.63;5.03;;;16.20;82.60;;;;;;5001238;28;20054;-81
2022/03/25 10:32:19;;;;;;;5.95;4.78;;;16.40;79.20;;;;;;4970967;28;20133;-80
2022/03/25 10:35:03;;;;;;;5.75;5.15;;;16.50;78.80;;;;;;4974416;28;20053;-81
2022/03/25 10:37:31;;;;;;;7.65;5.90;;;16.60;79.20;;;;;;4972301;28;20059;-81
2022/03/25 10:39:59;;;;;;;7.22;5.80;;;16.80;79.70;;;;;;4999903;28;20047;-77
2022/03/25 10:42:28;;;;;;;6.63;5.22;;;16.90;78.50;;;;;;4998477;28;20081;-78
2022/03/25 10:44:59;;;;;;;7.90;5.70;;;17.10;78.00;;;;;;4964541;28;20137;-77
2022/03/25 10:47:29;;;;;;;6.60;5.28;;;17.10;76.10;;;;;;5002579;28;20589;-77
2022/03/25 10:50:13;;;;;;;7.45;5.57;;;17.10;75.70;;;;;;4995884;28;20420;-77
2022/03/25 10:52:42;;;;;;;6.65;5.30;;;17.20;76.10;;;;;;4984176;28;20050;-78
2022/03/25 10:55:19;;;;;;;7.70;5.18;;;17.50;77.70;;;;;;4964392;28;20047;-77
2022/03/25 10:57:53;;;;;;;6.90;5.45;;;17.60;77.10;;;;;;4996997;28;20126;-78
2022/03/25 11:00:22;;;;;;;8.70;5.05;;;17.40;75.70;;;;;;4964476;28;20065;-78
2022/03/25 11:02:52;;;;;;;8.05;4.88;;;17.50;75.00;;;;;;4984331;28;20061;-78
2022/03/25 11:05:21;;;;;;;8.10;4.50;;;17.80;73.70;;;;;;4981101;28;20039;-78
2022/03/25 11:07:50;;;;;;;6.45;4.95;;;17.90;73.40;;;;;;4967929;28;20065;-77
2022/03/25 11:10:18;;;;;;;8.02;5.47;;;17.80;73.10;;;;;;4980708;28;20053;-77
2022/03/25 11:12:48;;;;;;;7.38;5.30;;;17.90;72.50;;;;;;4967135;28;20473;-76
2022/03/25 11:15:19;;;;;;;9.35;5.82;;;17.90;71.70;;;;;;4966004;28;20556;-76
2022/03/25 11:17:47;;;;;;;7.18;5.28;;;18.10;71.40;;;;;;4999760;28;20065;-76
2022/03/25 11:20:21;;;;;;;6.85;5.47;;;18.20;72.70;;;;;;4985025;28;20389;-77
2022/03/25 11:23:02;;;;;;;7.72;5.68;;;18.30;70.40;;;;;;4998688;28;20050;-76
2022/03/25 11:25:34;;;;;;;;;;;18.30;69.90;;;;;;4967593;28;20126;-76
2022/03/25 11:28:11;;;;;;;8.52;5.57;;;18.40;70.30;;;;;;4981687;28;20040;-75
2022/03/25 11:30:39;;;;;;;5.97;5.18;;;18.40;70.10;;;;;;4997495;28;20066;-76
2022/03/25 11:33:08;;;;;;;7.20;5.45;;;18.60;70.20;;;;;;4980547;28;20456;-75
2022/03/25 11:35:39;;;;;;;6.45;5.15;;;18.80;70.30;;;;;;4968460;28;20042;-76
2022/03/25 11:38:19;;;;;;;7.68;5.18;;;18.90;70.90;;;;;;4995215;28;20054;-76
2022/03/25 11:40:49;;;;;;;7.07;5.55;;;18.90;71.40;;;;;;4999099;28;20074;-76
2022/03/25 11:43:18;;;;;;;8.07;5.72;;;19.00;71.90;;;;;;4965020;28;20039;-77
2022/03/25 11:46:03;;;;;;;7.75;5.22;;;19.30;70.70;;;;;;4997490;28;20734;-76
2022/03/25 11:48:40;;;;;;;7.28;5.35;;;19.50;70.20;;;;;;4996085;28;20050;-77
2022/03/25 11:51:34;;;;;;;6.35;5.00;;;19.50;70.50;;;;;;5012790;28;20106;-77
2022/03/25 11:54:35;;;;;;;7.75;5.50;;;19.50;69.50;;;;;;4997087;28;20046;-77
2022/03/25 11:57:05;;;;;;;8.55;5.68;;;19.70;69.10;;;;;;4978494;28;20536;-77
2022/03/25 11:59:49;;;;;;;6.47;5.07;;;19.50;70.30;;;;;;4981797;28;20466;-76
2022/03/25 12:02:26;;;;;;;6.70;5.45;;;19.70;70.90;;;;;;4979475;28;20047;-78
2022/03/25 12:04:54;;;;;;;5.35;4.80;;;19.50;69.60;;;;;;4957998;28;20157;-77
2022/03/25 12:07:24;;;;;;;7.22;4.85;;;19.90;69.70;;;;;;4964188;28;20677;-77
2022/03/25 12:09:52;;;;;;;6.85;4.80;;;20.10;68.90;;;;;;4999441;28;20062;-77
2022/03/25 12:12:46;;;;;;;5.45;4.82;;;20.10;68.10;;;;;;4979144;28;20047;-76
2022/03/25 12:15:14;;;;;;;7.13;4.85;;;20.00;68.10;;;;;;4995520;28;20530;-78
2022/03/25 12:17:42;;;;;;;5.88;5.03;;;20.00;67.60;;;;;;4997955;28;20053;-78
2022/03/25 12:20:10;;;;;;;6.75;5.35;;;19.90;67.30;;;;;;4996352;28;20050;-78
2022/03/25 12:22:41;;;;;;;6.85;4.35;;;20.20;66.90;;;;;;4966609;28;20050;-79
2022/03/25 12:25:18;;;;;;;6.93;5.57;;;20.20;65.90;;;;;;4982753;28;20070;-77
2022/03/25 12:27:45;;;;;;;;;;;20.30;63.50;;;;;;4984411;28;20053;-77
2022/03/25 12:30:14;;;;;;;7.78;5.82;;;20.50;63.80;;;;;;4985778;28;19926;-77
2022/03/25 12:32:43;;;;;;;7.50;5.10;;;20.60;62.20;;;;;;4966021;28;20054;-77
2022/03/25 12:35:13;;;;;;;8.88;5.68;;;20.60;63.10;;;;;;4965519;28;20035;-77
2022/03/25 12:37:49;;;;;;;10.82;6.55;;;20.50;64.00;;;;;;4997287;28;20055;-78
2022/03/25 12:40:19;;;;;;;7.13;5.97;;;20.40;64.50;;;;;;4995195;28;20139;-77
2022/03/25 12:42:49;;;;;;;6.47;5.55;;;20.70;65.40;;;;;;4984247;28;20054;-77
2022/03/25 12:45:25;;;;;;;10.75;5.43;;;20.80;65.40;;;;;;4961663;28;20058;-77
2022/03/25 12:47:53;;;;;;;8.40;5.32;;;20.80;65.10;;;;;;4971527;28;20054;-77
2022/03/25 12:50:27;;;;;;;7.43;5.82;;;21.10;64.90;;;;;;4964000;28;20066;-77
2022/03/25 12:53:00;;;;;;;7.90;5.93;;;21.30;64.30;;;;;;4980116;28;20042;-77
2022/03/25 12:55:29;;;;;;;10.05;6.00;;;21.30;64.40;;;;;;4996913;28;20101;-80
2022/03/25 12:58:05;;;;;;;7.28;5.82;;;21.50;64.30;;;;;;4967093;28;20472;-77
2022/03/25 13:00:35;;;;;;;6.90;5.55;;;21.50;63.30;;;;;;4996427;28;20054;-77
2022/03/25 13:03:05;;;;;;;8.02;5.32;;;21.70;63.80;;;;;;5000575;28;20062;-78
2022/03/25 13:05:34;;;;;;;6.38;5.53;;;21.80;63.20;;;;;;4964633;28;20335;-76
2022/03/25 13:08:05;;;;;;;6.15;5.55;;;21.90;64.30;;;;;;4994221;28;20051;-77
2022/03/25 13:10:40;;;;;;;6.68;5.88;;;22.10;64.00;;;;;;4980839;28;20117;-76